Time;durP1;ratioP1;P1;durP2;ratioP2;P2;SDS_P1;SDS_P2;PMS_P1;PMS_P2;Temp;Humidity;BMP_temperature;BMP_pressure;BME280_temperature;BME280_humidity;BME280_pressure;Samples;Min_cycle;Max_cycle;Signal;HPM_P1;HPM_P2
2024/01/15 00:01:49;;;;;;;14.68;1.88;;;1.70;99.90;;;;;;5042070;28;20017;-67
2024/01/15 00:04:15;;;;;;;15.55;2.13;;;1.70;99.90;;;;;;5042422;28;20057;-68
2024/01/15 00:06:41;;;;;;;10.75;1.48;;;1.70;99.90;;;;;;5042323;28;20041;-68
2024/01/15 00:09:06;;;;;;;15.07;1.65;;;1.70;99.90;;;;;;5041737;28;20031;-68
2024/01/15 00:11:32;;;;;;;13.73;2.03;;;1.70;99.90;;;;;;5042801;28;20033;-68
2024/01/15 00:13:58;;;;;;;11.98;1.98;;;1.70;99.90;;;;;;5042726;28;20076;-74
2024/01/15 00:16:24;;;;;;;8.20;1.42;;;1.70;99.90;;;;;;5042458;28;20034;-69
2024/01/15 00:18:49;;;;;;;15.27;1.80;;;1.70;99.90;;;;;;5042504;28;20466;-69
2024/01/15 00:21:15;;;;;;;18.30;1.90;;;1.70;99.90;;;;;;5041915;28;20033;-69
2024/01/15 00:23:44;;;;;;;9.77;1.88;;;1.70;99.90;;;;;;5041566;28;20104;-68
2024/01/15 00:26:10;;;;;;;15.60;2.08;;;1.70;99.90;;;;;;5037098;28;20037;-70
2024/01/15 00:28:36;;;;;;;12.10;1.88;;;1.70;99.90;;;;;;5039792;28;20029;-70
2024/01/15 00:31:02;;;;;;;11.43;1.75;;;1.70;99.90;;;;;;5040701;28;20033;-71
2024/01/15 00:33:28;;;;;;;17.77;1.83;;;1.70;99.90;;;;;;5040938;28;20049;-70
2024/01/15 00:35:53;;;;;;;12.10;2.10;;;1.70;99.90;;;;;;5041251;28;20029;-71
2024/01/15 00:38:20;;;;;;;17.67;2.58;;;1.70;99.90;;;;;;5042161;28;20072;-69
2024/01/15 00:40:45;;;;;;;14.80;1.92;;;1.80;99.90;;;;;;5041826;28;20120;-71
2024/01/15 00:43:11;;;;;;;19.15;2.72;;;1.80;99.90;;;;;;5039719;28;20036;-69
2024/01/15 00:45:37;;;;;;;16.15;2.30;;;1.80;99.90;;;;;;5041567;28;20017;-69
2024/01/15 00:48:03;;;;;;;7.18;1.50;;;1.80;99.90;;;;;;5040726;28;20025;-70
2024/01/15 00:50:29;;;;;;;18.60;1.83;;;1.80;99.90;;;;;;5041782;28;20026;-70
2024/01/15 00:52:55;;;;;;;9.60;1.98;;;1.80;99.90;;;;;;5042521;28;20035;-71
2024/01/15 00:55:20;;;;;;;13.10;1.95;;;1.70;99.90;;;;;;5041818;28;20061;-69
2024/01/15 00:57:46;;;;;;;14.48;2.30;;;1.70;99.90;;;;;;5042293;28;20030;-70
2024/01/15 01:00:12;;;;;;;16.17;2.10;;;1.70;99.90;;;;;;5042452;28;20530;-68
2024/01/15 01:02:37;;;;;;;18.08;2.03;;;1.60;99.90;;;;;;5040953;28;20029;-68
2024/01/15 01:05:03;;;;;;;16.75;1.90;;;1.60;99.90;;;;;;5041589;28;20050;-75
2024/01/15 01:07:29;;;;;;;12.15;1.42;;;1.60;99.90;;;;;;5041688;28;20021;-70
2024/01/15 01:09:55;;;;;;;15.95;1.90;;;1.60;99.90;;;;;;5041522;28;20037;-69
2024/01/15 01:12:21;;;;;;;11.43;1.80;;;1.60;99.90;;;;;;5041995;28;20038;-70
2024/01/15 01:14:46;;;;;;;19.13;1.95;;;1.70;99.90;;;;;;5040303;28;20061;-71
2024/01/15 01:17:12;;;;;;;11.43;1.98;;;1.70;99.90;;;;;;5041840;28;20040;-69
2024/01/15 01:19:38;;;;;;;13.40;2.40;;;1.70;99.90;;;;;;5041813;28;20394;-71
2024/01/15 01:22:03;;;;;;;15.07;1.65;;;1.70;99.90;;;;;;5046011;28;20021;-70
2024/01/15 01:24:29;;;;;;;9.18;1.60;;;1.70;99.90;;;;;;5046003;28;20029;-72
2024/01/15 01:26:55;;;;;;;11.02;2.08;;;1.70;99.90;;;;;;5044156;28;20056;-71
2024/01/15 01:29:20;;;;;;;10.65;1.77;;;1.70;99.90;;;;;;5044020;28;20029;-72
2024/01/15 01:31:46;;;;;;;15.05;1.95;;;1.70;99.90;;;;;;5045950;28;20469;-70
2024/01/15 01:34:16;;;;;;;4.03;1.48;;;1.70;99.90;;;;;;5046051;28;20018;-72
2024/01/15 01:36:42;;;;;;;13.88;1.50;;;1.70;99.90;;;;;;5042069;28;20040;-69
2024/01/15 01:39:09;;;;;;;9.13;1.52;;;1.60;99.90;;;;;;5044331;28;20033;-69
2024/01/15 01:41:35;;;;;;;10.23;1.80;;;1.70;99.90;;;;;;5043238;28;20045;-71
2024/01/15 01:44:00;;;;;;;21.13;2.17;;;1.70;99.90;;;;;;5042261;28;20033;-70
2024/01/15 01:46:27;;;;;;;13.35;1.70;;;1.70;99.90;;;;;;5043913;28;20021;-70
2024/01/15 01:48:57;;;;;;;8.88;1.52;;;1.70;99.90;;;;;;5044194;28;20034;-70
2024/01/15 01:51:25;;;;;;;9.00;1.27;;;1.70;99.90;;;;;;5044539;28;20112;-71
2024/01/15 01:53:51;;;;;;;9.60;1.42;;;1.70;99.90;;;;;;5045096;28;20025;-68
2024/01/15 01:56:17;;;;;;;6.28;1.30;;;1.70;99.90;;;;;;5042118;28;20046;-69
2024/01/15 01:58:44;;;;;;;10.40;1.27;;;1.70;99.90;;;;;;5044177;28;20022;-70
2024/01/15 02:01:11;;;;;;;9.32;1.52;;;1.70;99.90;;;;;;5045029;28;20104;-71
2024/01/15 02:03:38;;;;;;;7.85;1.58;;;1.70;99.90;;;;;;5044331;28;20055;-71
2024/01/15 02:06:04;;;;;;;6.03;1.10;;;1.70;99.90;;;;;;5045279;28;20045;-70
2024/01/15 02:08:30;;;;;;;7.28;1.20;;;1.70;99.90;;;;;;5045140;28;20037;-71
2024/01/15 02:10:55;;;;;;;8.50;1.20;;;1.70;99.90;;;;;;5044255;28;20112;-70
2024/01/15 02:13:21;;;;;;;9.73;0.65;;;1.70;99.90;;;;;;5042265;28;20072;-71
2024/01/15 02:15:47;;;;;;;12.43;1.52;;;1.70;99.90;;;;;;5043669;28;20041;-71
2024/01/15 02:18:12;;;;;;;8.15;1.38;;;1.70;99.90;;;;;;5043415;28;20025;-70
2024/01/15 02:20:38;;;;;;;8.77;1.25;;;1.70;99.90;;;;;;5044766;28;20026;-69
2024/01/15 02:23:10;;;;;;;7.47;0.80;;;1.70;99.90;;;;;;5045231;28;20044;-69
2024/01/15 02:25:46;;;;;;;11.07;1.50;;;1.70;99.90;;;;;;5043418;28;20075;-70
2024/01/15 02:28:16;;;;;;;7.13;1.80;;;1.60;99.90;;;;;;5043288;28;20021;-66
2024/01/15 02:30:43;;;;;;;8.07;1.30;;;1.60;99.90;;;;;;5043942;28;20025;-71
2024/01/15 02:33:10;;;;;;;9.25;1.45;;;1.60;99.90;;;;;;5044409;28;20017;-70
2024/01/15 02:35:38;;;;;;;13.40;1.50;;;1.60;99.90;;;;;;5044347;28;20048;-69
2024/01/15 02:38:07;;;;;;;11.48;1.60;;;1.60;99.90;;;;;;5044892;28;20513;-70
2024/01/15 02:40:33;;;;;;;16.17;2.08;;;1.50;99.90;;;;;;5044348;28;20537;-69
2024/01/15 02:42:59;;;;;;;9.35;1.95;;;1.50;99.90;;;;;;5043905;28;20025;-69
2024/01/15 02:45:25;;;;;;;9.55;1.52;;;1.50;99.90;;;;;;5044689;28;20021;-68
2024/01/15 02:47:50;;;;;;;11.63;1.80;;;1.50;99.90;;;;;;5044388;28;20048;-68
2024/01/15 02:50:16;;;;;;;22.48;2.40;;;1.50;99.90;;;;;;5044527;28;20033;-68
2024/01/15 02:52:42;;;;;;;13.23;1.88;;;1.60;99.90;;;;;;5042824;28;20026;-69
2024/01/15 02:55:08;;;;;;;17.73;2.92;;;1.50;99.90;;;;;;5044343;28;20037;-70
2024/01/15 02:57:34;;;;;;;21.50;2.67;;;1.50;99.90;;;;;;5044377;28;20084;-71
2024/01/15 03:00:00;;;;;;;14.35;2.55;;;1.50;99.90;;;;;;5043860;28;20029;-69
2024/01/15 03:02:26;;;;;;;9.85;2.10;;;1.60;99.90;;;;;;5044685;28;20033;-69
2024/01/15 03:04:52;;;;;;;23.40;2.80;;;1.50;99.90;;;;;;5042775;28;20057;-69
2024/01/15 03:07:17;;;;;;;24.88;2.40;;;1.50;99.90;;;;;;5044134;28;20029;-69
2024/01/15 03:09:43;;;;;;;28.75;2.22;;;1.60;99.90;;;;;;5044153;28;20132;-69
2024/01/15 03:12:08;;;;;;;23.65;3.00;;;1.60;99.90;;;;;;5044143;28;20021;-69
2024/01/15 03:14:35;;;;;;;17.20;2.70;;;1.60;99.90;;;;;;5043623;28;20038;-69
2024/01/15 03:17:01;;;;;;;17.17;2.65;;;1.60;99.90;;;;;;5044251;28;20021;-70
2024/01/15 03:19:27;;;;;;;18.13;2.22;;;1.60;99.90;;;;;;5044170;28;20028;-69
2024/01/15 03:21:52;;;;;;;17.02;2.15;;;1.60;99.90;;;;;;5043463;28;20029;-71
2024/01/15 03:24:18;;;;;;;16.35;1.60;;;1.70;99.90;;;;;;5043578;28;20386;-69
2024/01/15 03:26:44;;;;;;;17.80;1.90;;;1.70;99.90;;;;;;5043498;28;20108;-70
2024/01/15 03:29:09;;;;;;;13.82;1.90;;;1.70;99.90;;;;;;5043550;28;20021;-70
2024/01/15 03:31:35;;;;;;;14.15;1.50;;;1.70;99.90;;;;;;5043754;28;20081;-68
2024/01/15 03:34:00;;;;;;;17.75;2.00;;;1.70;99.90;;;;;;5043709;28;20397;-69
2024/01/15 03:36:26;;;;;;;17.13;1.77;;;1.70;99.90;;;;;;5043626;28;20485;-69
2024/01/15 03:38:52;;;;;;;18.25;2.15;;;1.70;99.90;;;;;;5041828;28;20034;-69
2024/01/15 03:41:17;;;;;;;17.95;1.70;;;1.70;99.90;;;;;;5041897;28;20026;-69
2024/01/15 03:43:43;;;;;;;17.90;1.48;;;1.70;99.90;;;;;;5041640;28;20022;-68
2024/01/15 03:46:08;;;;;;;14.88;1.38;;;1.70;99.90;;;;;;5043557;28;20515;-70
2024/01/15 03:48:34;;;;;;;14.65;1.60;;;1.70;99.90;;;;;;5043422;28;20017;-67
2024/01/15 03:50:59;;;;;;;14.32;1.58;;;1.60;99.90;;;;;;5041085;28;20033;-68
2024/01/15 03:53:25;;;;;;;11.07;1.67;;;1.60;99.90;;;;;;5043325;28;20071;-69
2024/01/15 03:55:52;;;;;;;16.33;1.77;;;1.60;99.90;;;;;;5043287;28;20071;-69
2024/01/15 03:58:17;;;;;;;9.88;1.45;;;1.60;99.90;;;;;;5038719;28;20194;-68
2024/01/15 04:00:43;;;;;;;12.57;1.83;;;1.60;99.90;;;;;;5041661;28;20647;-69
2024/01/15 04:03:09;;;;;;;12.63;2.30;;;1.60;99.90;;;;;;5042233;28;20030;-69
2024/01/15 04:05:41;;;;;;;12.52;2.03;;;1.60;99.90;;;;;;5078313;28;20407;-67
2024/01/15 04:08:07;;;;;;;17.30;2.15;;;1.60;99.90;;;;;;5076893;28;20084;-67
2024/01/15 04:10:33;;;;;;;17.92;2.05;;;1.60;99.90;;;;;;5078487;28;20020;-68
2024/01/15 04:13:00;;;;;;;13.15;1.80;;;1.60;99.90;;;;;;5078946;28;20029;-68
2024/01/15 04:15:25;;;;;;;11.02;1.80;;;1.60;99.90;;;;;;5078481;28;20028;-68
2024/01/15 04:17:52;;;;;;;18.02;2.10;;;1.70;99.90;;;;;;5077786;28;20036;-67
2024/01/15 04:20:17;;;;;;;26.58;3.30;;;1.60;99.90;;;;;;5071119;28;20039;-67
2024/01/15 04:22:44;;;;;;;21.20;2.25;;;1.60;99.90;;;;;;5076269;28;20084;-66
2024/01/15 04:25:09;;;;;;;22.08;2.85;;;1.60;99.90;;;;;;5077668;28;20045;-70
2024/01/15 04:27:35;;;;;;;17.00;2.05;;;1.60;99.90;;;;;;5079214;28;20049;-68
2024/01/15 04:30:00;;;;;;;17.05;2.50;;;1.60;99.90;;;;;;5079329;28;20036;-69
2024/01/15 04:32:26;;;;;;;21.40;1.83;;;1.60;99.90;;;;;;5077836;28;20580;-67
2024/01/15 04:34:51;;;;;;;15.80;2.10;;;1.70;99.90;;;;;;5078164;28;20037;-70
2024/01/15 04:37:17;;;;;;;18.88;2.40;;;1.60;99.90;;;;;;5078421;28;20083;-68
2024/01/15 04:39:43;;;;;;;24.25;2.55;;;1.60;99.90;;;;;;5078844;28;20032;-68
2024/01/15 04:42:08;;;;;;;18.17;2.47;;;1.60;99.90;;;;;;5078675;28;20079;-68
2024/01/15 04:44:34;;;;;;;13.15;1.80;;;1.60;99.90;;;;;;5076932;28;20070;-70
2024/01/15 04:46:59;;;;;;;21.45;2.53;;;1.70;99.90;;;;;;5077878;28;20068;-68
2024/01/15 04:49:27;;;;;;;26.33;2.20;;;1.70;99.90;;;;;;5078313;28;20037;-71
2024/01/15 04:51:52;;;;;;;18.25;2.35;;;1.70;99.90;;;;;;5078896;28;20112;-68
2024/01/15 04:54:18;;;;;;;16.30;2.40;;;1.70;99.90;;;;;;5076519;28;20033;-69
2024/01/15 04:56:44;;;;;;;16.73;2.45;;;1.60;99.90;;;;;;5077356;28;20035;-69
2024/01/15 04:59:10;;;;;;;14.55;1.70;;;1.70;99.90;;;;;;5076036;28;20083;-67
2024/01/15 05:01:36;;;;;;;21.85;2.20;;;1.60;99.90;;;;;;5075971;28;20025;-68
2024/01/15 05:04:01;;;;;;;11.82;1.80;;;1.60;99.90;;;;;;5078476;28;20509;-69
2024/01/15 05:06:27;;;;;;;23.27;2.40;;;1.60;99.90;;;;;;5078564;28;20037;-69
2024/01/15 05:08:53;;;;;;;18.77;2.03;;;1.60;99.90;;;;;;5077867;28;20020;-69
2024/01/15 05:11:19;;;;;;;25.48;2.78;;;1.60;99.90;;;;;;5077266;28;20028;-69
2024/01/15 05:13:44;;;;;;;25.73;2.55;;;1.60;99.90;;;;;;5075920;28;20040;-68
2024/01/15 05:16:10;;;;;;;20.60;2.67;;;1.60;99.90;;;;;;5069590;28;20021;-67
2024/01/15 05:18:37;;;;;;;18.42;1.83;;;1.60;99.90;;;;;;5064232;28;20456;-68
2024/01/15 05:21:03;;;;;;;21.65;2.20;;;1.60;99.90;;;;;;5063177;28;20031;-68
2024/01/15 05:23:28;;;;;;;24.77;2.05;;;1.60;99.90;;;;;;5064928;28;20023;-68
2024/01/15 05:25:54;;;;;;;15.88;2.08;;;1.60;99.90;;;;;;5061974;28;20045;-69
2024/01/15 05:28:19;;;;;;;18.23;2.50;;;1.60;99.90;;;;;;5061666;28;20037;-69
2024/01/15 05:30:45;;;;;;;21.55;2.85;;;1.60;99.90;;;;;;5063259;28;20037;-68
2024/01/15 05:33:11;;;;;;;21.92;2.20;;;1.70;99.90;;;;;;5063540;28;20037;-68
2024/01/15 05:35:37;;;;;;;23.40;2.33;;;1.70;99.90;;;;;;5061837;28;20082;-70
2024/01/15 05:38:02;;;;;;;17.60;2.63;;;1.70;99.90;;;;;;5062893;28;20034;-69
2024/01/15 05:40:28;;;;;;;22.75;2.35;;;1.70;99.90;;;;;;5061464;28;20029;-66
2024/01/15 05:42:54;;;;;;;22.85;2.67;;;1.70;99.90;;;;;;5061887;28;20021;-69
2024/01/15 05:45:19;;;;;;;19.98;2.38;;;1.70;99.90;;;;;;5062855;28;20075;-68
2024/01/15 05:47:45;;;;;;;19.63;1.95;;;1.70;99.90;;;;;;5062656;28;20033;-68
2024/01/15 05:50:10;;;;;;;11.70;2.17;;;1.70;99.90;;;;;;5060278;28;20033;-67
2024/01/15 05:52:36;;;;;;;11.20;2.28;;;1.70;99.90;;;;;;5057608;28;20029;-67
2024/01/15 05:55:02;;;;;;;12.70;2.28;;;1.70;99.90;;;;;;5062937;28;20075;-67
2024/01/15 05:57:28;;;;;;;18.02;2.72;;;1.70;99.90;;;;;;5062601;28;20055;-69
2024/01/15 05:59:54;;;;;;;17.80;2.33;;;1.70;99.90;;;;;;5064132;28;20450;-68
2024/01/15 06:02:20;;;;;;;22.05;2.60;;;1.70;99.90;;;;;;5061642;28;20053;-66
2024/01/15 06:04:46;;;;;;;17.35;2.63;;;1.60;99.90;;;;;;5054639;28;20178;-67
2024/01/15 06:07:11;;;;;;;30.90;2.85;;;1.60;99.90;;;;;;5061953;28;20013;-67
2024/01/15 06:09:38;;;;;;;15.07;2.60;;;1.60;99.90;;;;;;5061830;28;20021;-66
2024/01/15 06:12:04;;;;;;;19.52;2.50;;;1.60;99.90;;;;;;5063714;28;20044;-67
2024/01/15 06:14:30;;;;;;;18.73;3.00;;;1.60;99.90;;;;;;5064226;28;20108;-68
2024/01/15 06:16:55;;;;;;;17.80;2.47;;;1.60;99.90;;;;;;5062973;28;20045;-69
2024/01/15 06:19:21;;;;;;;22.58;2.35;;;1.60;99.90;;;;;;5063931;28;20531;-67
2024/01/15 06:21:46;;;;;;;14.57;2.05;;;1.60;99.90;;;;;;5063814;28;20025;-67
2024/01/15 06:24:13;;;;;;;21.70;2.53;;;1.60;99.90;;;;;;5063970;28;20119;-67
2024/01/15 06:26:39;;;;;;;24.05;2.63;;;1.60;99.90;;;;;;5063522;28;20040;-69
2024/01/15 06:29:05;;;;;;;18.35;2.63;;;1.60;99.90;;;;;;5063353;28;20506;-67
2024/01/15 06:31:30;;;;;;;20.48;3.08;;;1.60;99.90;;;;;;5063498;28;20512;-69
2024/01/15 06:33:56;;;;;;;20.60;2.60;;;1.70;99.90;;;;;;5063382;28;20056;-67
2024/01/15 06:36:21;;;;;;;19.17;2.45;;;1.70;99.90;;;;;;5064008;28;20013;-66
2024/01/15 06:38:47;;;;;;;16.95;2.67;;;1.70;99.90;;;;;;5063662;28;20028;-68
2024/01/15 06:41:13;;;;;;;15.98;2.08;;;1.70;99.90;;;;;;5063765;28;20017;-67
2024/01/15 06:43:39;;;;;;;15.85;1.88;;;1.70;99.90;;;;;;5063279;28;20062;-68
2024/01/15 06:46:04;;;;;;;12.80;1.92;;;1.70;99.90;;;;;;5063452;28;20079;-68
2024/01/15 06:48:30;;;;;;;17.85;2.20;;;1.70;99.90;;;;;;5063601;28;20035;-70
2024/01/15 06:50:56;;;;;;;22.17;3.17;;;1.70;99.90;;;;;;5063607;28;20080;-66
2024/01/15 06:53:21;;;;;;;16.85;2.67;;;1.70;99.90;;;;;;5063110;28;20024;-69
2024/01/15 06:55:49;;;;;;;21.30;2.45;;;1.60;99.90;;;;;;5062326;28;20029;-68
2024/01/15 06:58:14;;;;;;;13.77;3.78;;;1.60;99.90;;;;;;5062930;28;20470;-67
2024/01/15 07:00:40;;;;;;;12.43;2.20;;;1.60;99.90;;;;;;5063202;28;20048;-67
2024/01/15 07:03:07;;;;;;;18.60;2.50;;;1.60;99.90;;;;;;5063450;28;20025;-67
2024/01/15 07:05:32;;;;;;;18.60;2.10;;;1.60;99.90;;;;;;5062982;28;20053;-68
2024/01/15 07:07:59;;;;;;;9.90;1.85;;;1.60;99.90;;;;;;5061981;28;20059;-66
2024/01/15 07:10:26;;;;;;;17.45;2.42;;;1.60;99.90;;;;;;5062495;28;20021;-69
2024/01/15 07:12:51;;;;;;;8.45;1.67;;;1.60;99.90;;;;;;5062643;28;20048;-67
2024/01/15 07:15:17;;;;;;;5.60;1.58;;;1.50;99.90;;;;;;5060753;28;20062;-68
2024/01/15 07:17:42;;;;;;;11.30;1.70;;;1.50;99.90;;;;;;5063087;28;20028;-66
2024/01/15 07:20:09;;;;;;;8.90;2.25;;;1.50;99.90;;;;;;5060876;28;20017;-66
2024/01/15 07:22:38;;;;;;;11.85;1.85;;;1.50;99.90;;;;;;5062457;28;20024;-68
2024/01/15 07:25:07;;;;;;;11.15;1.58;;;1.50;99.90;;;;;;5062435;28;20040;-67
2024/01/15 07:27:33;;;;;;;9.80;1.80;;;1.40;99.90;;;;;;5062515;28;20382;-69
2024/01/15 07:30:03;;;;;;;7.53;2.13;;;1.40;99.90;;;;;;5062497;28;20025;-68
2024/01/15 07:32:30;;;;;;;15.48;4.85;;;1.40;99.90;;;;;;5062706;28;20029;-67
2024/01/15 07:34:56;;;;;;;29.75;9.90;;;1.40;99.90;;;;;;5062613;28;20528;-66
2024/01/15 07:37:23;;;;;;;13.27;3.70;;;1.40;99.90;;;;;;5062660;28;20025;-68
2024/01/15 07:39:52;;;;;;;13.45;4.03;;;1.40;99.90;;;;;;5062415;28;20039;-68
2024/01/15 07:42:17;;;;;;;19.95;3.63;;;1.40;99.90;;;;;;5061974;28;20056;-67
2024/01/15 07:44:44;;;;;;;12.63;1.85;;;1.40;99.90;;;;;;5061501;28;20029;-68
2024/01/15 07:47:09;;;;;;;7.90;2.53;;;1.40;99.90;;;;;;5062313;28;20040;-67
2024/01/15 07:49:35;;;;;;;14.82;1.95;;;1.40;99.90;;;;;;5061947;28;20032;-67
2024/01/15 07:52:01;;;;;;;12.32;1.90;;;1.40;99.90;;;;;;5062376;28;20025;-67
2024/01/15 07:54:26;;;;;;;23.05;2.63;;;1.40;99.90;;;;;;5062003;28;20024;-66
2024/01/15 07:56:55;;;;;;;8.85;1.90;;;1.50;99.90;;;;;;5062495;28;20051;-66
2024/01/15 07:59:21;;;;;;;9.63;1.75;;;1.40;99.90;;;;;;5062033;28;20096;-66
2024/01/15 08:01:47;;;;;;;14.65;2.92;;;1.50;99.90;;;;;;5060755;28;20520;-67
2024/01/15 08:04:13;;;;;;;13.40;2.13;;;1.50;99.90;;;;;;5061675;28;20044;-67
2024/01/15 08:06:39;;;;;;;8.73;1.75;;;1.50;99.90;;;;;;5062558;28;20041;-69
2024/01/15 08:09:05;;;;;;;5.97;1.17;;;1.40;99.90;;;;;;5062554;28;20397;-68
2024/01/15 08:11:30;;;;;;;9.75;2.08;;;1.40;99.90;;;;;;5062176;28;20075;-69
2024/01/15 08:13:56;;;;;;;19.42;1.98;;;1.30;99.90;;;;;;5061234;28;20017;-70
2024/01/15 08:16:24;;;;;;;19.40;2.65;;;1.30;99.90;;;;;;5062534;28;20417;-69
2024/01/15 08:18:49;;;;;;;17.83;2.70;;;1.30;99.90;;;;;;5057616;28;20036;-67
2024/01/15 08:21:15;;;;;;;12.23;1.90;;;1.30;99.90;;;;;;5059531;28;20041;-67
2024/01/15 08:23:41;;;;;;;10.70;2.67;;;1.30;99.90;;;;;;5055658;28;20029;-70
2024/01/15 08:26:08;;;;;;;2.47;0.70;;;1.20;99.90;;;;;;5057134;28;20029;-68
2024/01/15 08:28:34;;;;;;;8.98;1.23;;;1.20;99.90;;;;;;5061088;28;20032;-70
2024/01/15 08:31:00;;;;;;;6.82;2.35;;;1.10;99.90;;;;;;5058425;28;20064;-68
2024/01/15 08:33:25;;;;;;;7.32;1.65;;;1.10;99.90;;;;;;5058751;28;20039;-68
2024/01/15 08:35:51;;;;;;;9.60;1.90;;;1.10;99.90;;;;;;5060999;28;20028;-70
2024/01/15 08:38:16;;;;;;;15.80;2.58;;;1.20;99.90;;;;;;5060737;28;20036;-69
2024/01/15 08:40:42;;;;;;;13.48;3.25;;;1.30;99.90;;;;;;5059587;28;20017;-68
2024/01/15 08:43:07;;;;;;;12.80;3.63;;;1.30;99.90;;;;;;5059088;28;20037;-69
2024/01/15 08:45:33;;;;;;;9.95;3.33;;;1.40;99.90;;;;;;5059806;28;20049;-67
2024/01/15 08:47:59;;;;;;;10.60;2.70;;;1.40;99.90;;;;;;5061628;28;20075;-69
2024/01/15 08:50:25;;;;;;;5.28;2.13;;;1.40;99.90;;;;;;5062114;28;20021;-70
2024/01/15 08:52:50;;;;;;;14.93;2.85;;;1.40;99.90;;;;;;5061001;28;20028;-68
2024/01/15 08:55:16;;;;;;;21.00;2.63;;;1.40;99.90;;;;;;5063877;28;20040;-68
2024/01/15 08:57:41;;;;;;;10.52;2.88;;;1.40;99.90;;;;;;5065341;28;20082;-68
2024/01/15 09:00:08;;;;;;;15.98;2.65;;;1.40;99.90;;;;;;5065065;28;20035;-67
2024/01/15 09:02:35;;;;;;;14.18;2.38;;;1.40;99.90;;;;;;5065204;28;20029;-70
2024/01/15 09:05:01;;;;;;;16.98;2.75;;;1.40;99.90;;;;;;5063890;28;20041;-70
2024/01/15 09:07:26;;;;;;;10.70;2.47;;;1.40;99.90;;;;;;5065207;28;20025;-68
2024/01/15 09:09:52;;;;;;;13.05;2.65;;;1.40;99.90;;;;;;5062940;28;20609;-67
2024/01/15 09:12:20;;;;;;;12.38;2.08;;;1.40;99.90;;;;;;5061190;28;20578;-68
2024/01/15 09:14:47;;;;;;;9.70;1.67;;;1.50;99.90;;;;;;5063250;28;20048;-67
2024/01/15 09:17:12;;;;;;;23.13;3.08;;;1.50;99.90;;;;;;5065181;28;20021;-67
2024/01/15 09:19:42;;;;;;;16.40;2.28;;;1.60;99.90;;;;;;5064777;28;20086;-67
2024/01/15 09:22:08;;;;;;;24.55;2.70;;;1.60;99.90;;;;;;5064541;28;20024;-68
2024/01/15 09:24:33;;;;;;;27.13;3.60;;;1.60;99.90;;;;;;5061376;28;20244;-68
2024/01/15 09:27:00;;;;;;;12.65;2.50;;;1.60;99.90;;;;;;5062805;28;20017;-70
2024/01/15 09:29:25;;;;;;;19.27;2.35;;;1.60;99.90;;;;;;5063755;28;20059;-70
2024/01/15 09:31:51;;;;;;;18.45;2.50;;;1.70;99.90;;;;;;5061922;28;20037;-68
2024/01/15 09:34:18;;;;;;;15.75;2.22;;;1.70;99.90;;;;;;5063957;28;20021;-68
2024/01/15 09:36:43;;;;;;;10.88;2.05;;;1.60;99.90;;;;;;5062490;28;20036;-68
2024/01/15 09:39:11;;;;;;;9.98;1.77;;;1.60;99.90;;;;;;5062794;28;20029;-67
2024/01/15 09:41:37;;;;;;;7.30;2.03;;;1.60;99.90;;;;;;5061853;28;20493;-68
2024/01/15 09:44:03;;;;;;;13.50;2.28;;;1.60;99.90;;;;;;5061200;28;20033;-68
2024/01/15 09:46:31;;;;;;;16.70;2.50;;;1.60;99.90;;;;;;5061770;28;20028;-67
2024/01/15 09:48:57;;;;;;;11.55;1.85;;;1.70;99.90;;;;;;5062353;28;20025;-69
2024/01/15 09:51:24;;;;;;;6.18;1.80;;;1.60;99.90;;;;;;5062245;28;20386;-68
2024/01/15 09:53:50;;;;;;;9.07;1.77;;;1.60;99.90;;;;;;5063245;28;20036;-66
2024/01/15 09:56:16;;;;;;;7.05;2.13;;;1.50;99.90;;;;;;5059422;28;20033;-68
2024/01/15 09:58:42;;;;;;;10.77;1.95;;;1.60;99.90;;;;;;5063321;28;20084;-68
2024/01/15 10:01:09;;;;;;;8.30;2.83;;;1.60;99.90;;;;;;5064051;28;20462;-66
2024/01/15 10:03:36;;;;;;;11.77;2.05;;;1.60;99.90;;;;;;5061445;28;20021;-66
2024/01/15 10:06:02;;;;;;;8.77;2.25;;;1.70;99.90;;;;;;5058970;28;20044;-68
2024/01/15 10:08:28;;;;;;;8.98;2.25;;;1.70;99.90;;;;;;5063397;28;20024;-67
2024/01/15 10:10:54;;;;;;;14.77;2.60;;;1.80;99.90;;;;;;5062917;28;20064;-68
2024/01/15 10:13:20;;;;;;;8.35;2.20;;;1.80;99.90;;;;;;5060916;28;20029;-67
2024/01/15 10:15:49;;;;;;;9.93;3.05;;;1.80;99.90;;;;;;5062563;28;20036;-66
2024/01/15 10:18:15;;;;;;;33.45;6.05;;;1.80;99.90;;;;;;5062707;28;20036;-68
2024/01/15 10:20:42;;;;;;;39.00;6.45;;;1.80;99.90;;;;;;5058787;28;20100;-68
2024/01/15 10:23:08;;;;;;;15.75;3.67;;;1.80;99.90;;;;;;5058546;28;20025;-68
2024/01/15 10:25:35;;;;;;;24.55;4.53;;;1.80;99.90;;;;;;5062523;28;20041;-67
2024/01/15 10:28:03;;;;;;;18.85;3.80;;;1.90;99.90;;;;;;5057875;28;20029;-69
2024/01/15 10:30:29;;;;;;;13.30;3.15;;;1.80;99.90;;;;;;5065986;28;20032;-67
2024/01/15 10:33:03;;;;;;;16.52;3.83;;;1.90;99.90;;;;;;5056066;28;20036;-68
2024/01/15 10:35:33;;;;;;;15.32;3.05;;;1.90;99.90;;;;;;5063232;28;20025;-67
2024/01/15 10:38:02;;;;;;;14.57;4.45;;;1.90;99.90;;;;;;5061841;28;20028;-66
2024/01/15 10:40:29;;;;;;;12.23;3.15;;;1.90;99.90;;;;;;5059806;28;20056;-67
2024/01/15 10:42:54;;;;;;;7.95;1.92;;;2.00;99.90;;;;;;5059493;28;20056;-68
2024/01/15 10:45:20;;;;;;;12.88;2.40;;;2.00;99.90;;;;;;5060685;28;20041;-67
2024/01/15 10:47:46;;;;;;;12.07;2.72;;;1.90;99.90;;;;;;5060265;28;20080;-67
2024/01/15 10:50:12;;;;;;;12.63;2.13;;;1.90;99.90;;;;;;5062705;28;20043;-68
2024/01/15 10:52:40;;;;;;;17.48;2.30;;;1.90;99.90;;;;;;5061145;28;20021;-67
2024/01/15 10:55:08;;;;;;;13.73;2.40;;;1.80;99.90;;;;;;5062765;28;20120;-65
2024/01/15 10:57:34;;;;;;;5.95;2.03;;;1.80;99.90;;;;;;5062737;28;20036;-68
2024/01/15 11:00:03;;;;;;;6.55;1.73;;;1.80;99.90;;;;;;5063110;28;20622;-65
2024/01/15 11:02:29;;;;;;;13.23;2.10;;;1.70;99.90;;;;;;5062274;28;20091;-66
2024/01/15 11:05:09;;;;;;;7.50;2.00;;;1.80;99.90;;;;;;5059188;28;20060;-68
2024/01/15 11:07:35;;;;;;;8.15;2.03;;;1.80;99.90;;;;;;5060014;28;20033;-66
2024/01/15 11:10:03;;;;;;;6.70;2.28;;;1.80;99.90;;;;;;5060293;28;20043;-66
2024/01/15 11:12:29;;;;;;;10.57;1.90;;;1.90;99.90;;;;;;5061155;28;20054;-67
2024/01/15 11:15:04;;;;;;;6.90;1.85;;;2.00;99.90;;;;;;5059294;28;20044;-68
2024/01/15 11:18:00;;;;;;;8.25;1.92;;;1.90;99.90;;;;;;5057822;28;20033;-68
2024/01/15 11:20:26;;;;;;;8.93;1.33;;;1.80;99.90;;;;;;5060976;28;20074;-68
2024/01/15 11:22:52;;;;;;;5.03;1.67;;;1.60;99.90;;;;;;5056994;28;20025;-68
2024/01/15 11:25:20;;;;;;;7.35;1.67;;;1.50;99.90;;;;;;5059082;28;20096;-67
2024/01/15 11:27:51;;;;;;;14.38;2.20;;;1.50;99.90;;;;;;5059505;28;20048;-67
2024/01/15 11:30:17;;;;;;;11.55;2.40;;;1.50;99.90;;;;;;5062141;28;20013;-67
2024/01/15 11:32:43;;;;;;;12.60;2.50;;;1.40;99.90;;;;;;5060304;28;20041;-69
2024/01/15 11:35:10;;;;;;;12.82;3.20;;;1.40;99.90;;;;;;5061384;28;20032;-69
2024/01/15 11:37:51;;;;;;;9.93;2.72;;;1.40;99.90;;;;;;5058417;28;20098;-67
2024/01/15 11:40:37;;;;;;;17.02;2.45;;;1.40;99.90;;;;;;5061437;28;20035;-68
2024/01/15 11:43:04;;;;;;;11.70;2.58;;;1.40;99.90;;;;;;5061745;28;20048;-67
2024/01/15 11:45:30;;;;;;;10.10;2.75;;;1.40;99.90;;;;;;5062077;28;20060;-67
2024/01/15 11:48:12;;;;;;;14.45;3.60;;;1.50;99.90;;;;;;5058368;28;20021;-68
2024/01/15 11:50:41;;;;;;;17.38;3.72;;;1.50;99.90;;;;;;5060055;28;20509;-68
2024/01/15 11:53:18;;;;;;;16.40;4.45;;;1.50;99.90;;;;;;5057817;28;20037;-69
2024/01/15 11:55:45;;;;;;;8.93;2.80;;;1.50;99.90;;;;;;5062270;28;20051;-68
2024/01/15 11:58:11;;;;;;;6.07;2.47;;;1.50;99.90;;;;;;5060544;28;20025;-70
2024/01/15 12:00:42;;;;;;;12.60;3.22;;;1.50;99.90;;;;;;5059883;28;20060;-70
2024/01/15 12:03:08;;;;;;;10.55;3.38;;;1.50;99.90;;;;;;5042690;28;20128;-68
2024/01/15 12:05:37;;;;;;;11.60;3.22;;;1.50;99.90;;;;;;5044446;28;20132;-69
2024/01/15 12:08:03;;;;;;;9.65;3.05;;;1.60;99.90;;;;;;5058853;28;20047;-68
2024/01/15 12:10:29;;;;;;;9.90;3.15;;;1.80;99.90;;;;;;5062360;28;20462;-68
2024/01/15 12:13:09;;;;;;;9.48;2.40;;;1.90;99.90;;;;;;5054195;28;20040;-69
2024/01/15 12:15:35;;;;;;;10.38;3.22;;;2.00;99.90;;;;;;5058911;28;20036;-68
2024/01/15 12:18:02;;;;;;;12.85;3.35;;;2.10;99.90;;;;;;5062173;28;20021;-68
2024/01/15 12:20:32;;;;;;;10.60;3.10;;;2.20;99.90;;;;;;5058051;28;20087;-70
2024/01/15 12:22:59;;;;;;;10.90;2.22;;;2.50;99.90;;;;;;5057911;28;20079;-69
2024/01/15 12:25:27;;;;;;;10.27;2.42;;;2.60;99.90;;;;;;5060409;28;20037;-68
2024/01/15 12:27:53;;;;;;;15.57;2.40;;;2.60;99.90;;;;;;5060839;28;20398;-67
2024/01/15 12:30:19;;;;;;;7.43;1.90;;;2.60;99.90;;;;;;5063803;28;20024;-67
2024/01/15 12:32:46;;;;;;;8.68;3.10;;;2.60;99.90;;;;;;5064838;28;20585;-66
2024/01/15 12:35:14;;;;;;;12.55;2.55;;;2.50;99.90;;;;;;5064432;28;20025;-69
2024/01/15 12:37:41;;;;;;;12.10;2.50;;;2.50;99.90;;;;;;5064217;28;20028;-66
2024/01/15 12:40:09;;;;;;;6.65;2.15;;;2.50;99.90;;;;;;5064585;28;20064;-68
2024/01/15 12:42:42;;;;;;;7.65;2.50;;;2.50;99.90;;;;;;5063646;28;20098;-69
2024/01/15 12:45:11;;;;;;;7.68;2.17;;;2.50;99.90;;;;;;5063955;28;20038;-67
2024/01/15 12:47:37;;;;;;;12.63;2.30;;;2.50;99.90;;;;;;5064877;28;20028;-67